Time;durP1;ratioP1;P1;durP2;ratioP2;P2;SDS_P1;SDS_P2;PMS_P1;PMS_P2;Temp;Humidity;BMP_temperature;BMP_pressure;BME280_temperature;BME280_humidity;BME280_pressure;Samples;Min_cycle;Max_cycle;Signal;HPM_P1;HPM_P2
2023/04/09 00:01:10;;;;;;;62.53;41.67;;;;;;;;;;5005010;28;20227;-83
2023/04/09 00:03:36;;;;;;;59.87;41.07;;;;;;;;;;5006058;28;20232;-85
2023/04/09 00:06:08;;;;;;;61.53;42.53;;;;;;;;;;4997430;28;20294;-84
2023/04/09 00:08:33;;;;;;;63.40;41.33;;;;;;;;;;4999032;28;20221;-85
2023/04/09 00:11:01;;;;;;;62.10;42.03;;;;;;;;;;5012965;28;20213;-84
2023/04/09 00:13:26;;;;;;;69.47;43.80;;;;;;;;;;4994655;28;20217;-85
2023/04/09 00:15:52;;;;;;;66.13;42.20;;;;;;;;;;4980138;28;20220;-82
2023/04/09 00:18:17;;;;;;;61.87;42.40;;;;;;;;;;4993929;28;20251;-85
2023/04/09 00:20:43;;;;;;;58.87;42.10;;;;;;;;;;4996022;28;20196;-85
2023/04/09 00:23:08;;;;;;;62.13;43.00;;;;;;;;;;5004380;28;20235;-84
2023/04/09 00:25:36;;;;;;;63.67;42.20;;;;;;;;;;5004264;28;20606;-83
2023/04/09 00:28:02;;;;;;;65.87;42.07;;;;;;;;;;4982708;28;20268;-84
2023/04/09 00:30:32;;;;;;;64.27;43.00;;;;;;;;;;4982747;28;20235;-86
2023/04/09 00:32:57;;;;;;;64.90;42.97;;;;;;;;;;4991850;28;20228;-85
2023/04/09 00:35:28;;;;;;;62.93;43.17;;;;;;;;;;5002480;28;20347;-84
2023/04/09 00:37:54;;;;;;;63.63;42.93;;;;;;;;;;5004488;28;20243;-85
2023/04/09 00:40:24;;;;;;;67.50;42.90;;;;;;;;;;4979738;28;20222;-83
2023/04/09 00:42:52;;;;;;;61.03;41.50;;;;;;;;;;4995390;28;20228;-84
2023/04/09 00:45:17;;;;;;;66.17;43.30;;;;;;;;;;4982809;28;20267;-83
2023/04/09 00:47:45;;;;;;;65.53;43.73;;;;;;;;;;4965271;28;20693;-83
2023/04/09 00:50:14;;;;;;;64.73;42.87;;;;;;;;;;4972738;28;20240;-83
2023/04/09 00:52:39;;;;;;;59.43;42.53;;;;;;;;;;4966759;28;20223;-85
2023/04/09 00:55:10;;;;;;;60.57;40.63;;;;;;;;;;4988328;28;20717;-85
2023/04/09 00:57:38;;;;;;;60.23;39.80;;;;;;;;;;4980812;28;20232;-84
2023/04/09 01:00:06;;;;;;;56.73;40.53;;;;;;;;;;4996449;28;20217;-84
2023/04/09 01:02:31;;;;;;;60.20;41.00;;;;;;;;;;4981960;28;20575;-84
2023/04/09 01:04:57;;;;;;;59.73;40.80;;;;;;;;;;4982173;28;20244;-86
2023/04/09 01:07:34;;;;;;;57.93;40.90;;;;;;;;;;4994369;28;20223;-83
2023/04/09 01:10:04;;;;;;;62.27;40.53;;;;;;;;;;5001859;28;20225;-84
2023/04/09 01:12:58;;;;;;;54.30;39.17;;;;;;;;;;4992256;28;20303;-85
2023/04/09 01:15:30;;;;;;;55.97;40.00;;;;;;;;;;4982200;28;20683;-85
2023/04/09 01:18:12;;;;;;;57.53;39.07;;;;;;;;;;4967662;28;20311;-85
2023/04/09 01:20:58;;;;;;;59.80;40.50;;;;;;;;;;5016726;28;20227;-84
2023/04/09 01:23:57;;;;;;;57.07;39.67;;;;;;;;;;4976565;28;20232;-84
2023/04/09 01:26:50;;;;;;;58.43;39.40;;;;;;;;;;5011302;28;20224;-85
2023/04/09 01:29:20;;;;;;;56.43;39.43;;;;;;;;;;4976908;28;20247;-84
2023/04/09 01:31:45;;;;;;;56.97;39.73;;;;;;;;;;5001256;28;20217;-85
2023/04/09 01:34:11;;;;;;;60.10;40.93;;;;;;;;;;4974222;28;20212;-84
2023/04/09 01:36:37;;;;;;;59.47;40.13;;;;;;;;;;5011785;28;20217;-83
2023/04/09 01:39:05;;;;;;;53.97;40.20;;;;;;;;;;4962098;28;20308;-82
2023/04/09 01:41:32;;;;;;;57.43;39.20;;;;;;;;;;4979435;28;20227;-84
2023/04/09 01:44:00;;;;;;;55.97;40.13;;;;;;;;;;4979559;28;20236;-83
2023/04/09 01:46:28;;;;;;;57.70;38.40;;;;;;;;;;4978881;28;20227;-84
2023/04/09 01:48:54;;;;;;;53.83;37.03;;;;;;;;;;4979372;28;20287;-82
2023/04/09 01:51:19;;;;;;;52.53;37.00;;;;;;;;;;4957554;28;20599;-83
2023/04/09 01:53:45;;;;;;;52.47;38.53;;;;;;;;;;5014064;28;20216;-85
2023/04/09 01:56:13;;;;;;;56.50;39.70;;;;;;;;;;4995694;28;20217;-84
2023/04/09 01:58:39;;;;;;;52.60;37.97;;;;;;;;;;4978085;28;20223;-83
2023/04/09 02:01:11;;;;;;;54.50;39.50;;;;;;;;;;4963455;28;20228;-83
2023/04/09 02:03:45;;;;;;;54.70;38.37;;;;;;;;;;5011386;28;20271;-85
2023/04/09 02:06:26;;;;;;;54.53;38.00;;;;;;;;;;4973074;28;20694;-83
2023/04/09 02:08:51;;;;;;;54.37;38.50;;;;;;;;;;5012808;28;20232;-83
2023/04/09 02:11:17;;;;;;;53.03;38.57;;;;;;;;;;4981165;28;20217;-85
2023/04/09 02:13:42;;;;;;;58.70;41.10;;;;;;;;;;4980200;28;20220;-83
2023/04/09 02:16:08;;;;;;;50.57;37.30;;;;;;;;;;4997627;28;20224;-84
2023/04/09 02:18:36;;;;;;;52.40;36.17;;;;;;;;;;5011977;28;20263;-83
2023/04/09 02:21:01;;;;;;;53.33;37.53;;;;;;;;;;5012494;28;20232;-83
2023/04/09 02:23:27;;;;;;;55.83;39.67;;;;;;;;;;4994571;28;20227;-83
2023/04/09 02:25:53;;;;;;;54.83;38.63;;;;;;;;;;4993608;28;20228;-84
2023/04/09 02:28:18;;;;;;;56.57;39.97;;;;;;;;;;4983352;28;20228;-84
2023/04/09 02:30:44;;;;;;;58.47;39.00;;;;;;;;;;4963776;28;20213;-85
2023/04/09 02:33:09;;;;;;;57.30;39.50;;;;;;;;;;4965740;28;20228;-85
2023/04/09 02:35:37;;;;;;;49.97;36.97;;;;;;;;;;4999752;28;20240;-85
2023/04/09 02:38:06;;;;;;;54.63;38.47;;;;;;;;;;4997500;28;20777;-84
2023/04/09 02:40:32;;;;;;;54.77;37.90;;;;;;;;;;4985980;28;20247;-84
2023/04/09 02:43:00;;;;;;;57.10;37.90;;;;;;;;;;4984552;28;20221;-83
2023/04/09 02:45:25;;;;;;;52.57;36.97;;;;;;;;;;4984777;28;20649;-85
2023/04/09 02:47:51;;;;;;;58.23;39.03;;;;;;;;;;4962503;28;20232;-84
2023/04/09 02:50:21;;;;;;;52.10;36.87;;;;;;;;;;4982813;28;20217;-85
2023/04/09 02:52:52;;;;;;;53.13;36.70;;;;;;;;;;4977208;28;20230;-84
2023/04/09 02:55:21;;;;;;;52.17;36.77;;;;;;;;;;4981907;28;20227;-84
2023/04/09 02:57:46;;;;;;;59.03;37.60;;;;;;;;;;4971191;28;20220;-85
2023/04/09 03:00:12;;;;;;;56.47;36.47;;;;;;;;;;4965703;28;20270;-86
2023/04/09 03:02:42;;;;;;;55.47;36.70;;;;;;;;;;4970173;28;20774;-85
2023/04/09 03:05:10;;;;;;;54.63;37.63;;;;;;;;;;4980566;28;20229;-83
2023/04/09 03:07:35;;;;;;;53.47;38.00;;;;;;;;;;4966961;28;20223;-85
2023/04/09 03:10:01;;;;;;;50.03;37.23;;;;;;;;;;4966096;28;20224;-83
2023/04/09 03:12:31;;;;;;;54.30;37.97;;;;;;;;;;4984435;28;20682;-84
2023/04/09 03:14:59;;;;;;;54.27;38.20;;;;;;;;;;4966424;28;20235;-83
2023/04/09 03:17:30;;;;;;;56.10;38.60;;;;;;;;;;4978620;28;20213;-85
2023/04/09 03:19:56;;;;;;;55.03;37.47;;;;;;;;;;4998856;28;20229;-85
2023/04/09 03:22:22;;;;;;;53.93;37.03;;;;;;;;;;4981001;28;20725;-85
2023/04/09 03:24:51;;;;;;;52.63;36.37;;;;;;;;;;4981562;28;20248;-85
2023/04/09 03:27:18;;;;;;;51.87;36.50;;;;;;;;;;5001897;28;20227;-85
2023/04/09 03:29:50;;;;;;;52.37;37.77;;;;;;;;;;5001173;28;20263;-85
2023/04/09 03:32:16;;;;;;;54.60;38.60;;;;;;;;;;4968028;28;20215;-84
2023/04/09 03:34:46;;;;;;;55.93;38.43;;;;;;;;;;4970559;28;20248;-84
2023/04/09 03:37:15;;;;;;;50.27;36.33;;;;;;;;;;4988079;28;20220;-85
2023/04/09 03:39:40;;;;;;;56.00;38.53;;;;;;;;;;4974040;28;20262;-85
2023/04/09 03:42:06;;;;;;;52.37;37.80;;;;;;;;;;4975602;28;20307;-83
2023/04/09 03:44:41;;;;;;;49.27;36.03;;;;;;;;;;4980595;28;20232;-85
2023/04/09 03:47:10;;;;;;;51.83;36.87;;;;;;;;;;4974271;28;20224;-85
2023/04/09 03:49:37;;;;;;;49.77;34.57;;;;;;;;;;4964393;28;20257;-85
2023/04/09 03:52:32;;;;;;;45.83;35.00;;;;;;;;;;4983663;28;20213;-85
2023/04/09 03:55:05;;;;;;;52.20;35.93;;;;;;;;;;4973111;28;20240;-83
2023/04/09 03:57:35;;;;;;;48.33;36.20;;;;;;;;;;5004511;28;20645;-84
2023/04/09 04:00:05;;;;;;;49.10;34.33;;;;;;;;;;4971232;28;20228;-85
2023/04/09 04:02:49;;;;;;;46.23;34.57;;;;;;;;;;5013303;28;20535;-83
2023/04/09 04:05:20;;;;;;;45.37;34.37;;;;;;;;;;4986896;28;20223;-84
2023/04/09 04:07:48;;;;;;;48.83;35.53;;;;;;;;;;4979973;28;20302;-84
2023/04/09 04:10:22;;;;;;;49.83;34.97;;;;;;;;;;4998011;28;20785;-84
2023/04/09 04:12:52;;;;;;;46.43;35.30;;;;;;;;;;4990733;28;20343;-85
2023/04/09 04:15:42;;;;;;;46.97;35.07;;;;;;;;;;4977137;28;20228;-85
2023/04/09 04:18:09;;;;;;;41.90;34.00;;;;;;;;;;4997209;28;20256;-85
2023/04/09 04:20:42;;;;;;;47.90;34.30;;;;;;;;;;4994562;28;20235;-81
2023/04/09 04:23:11;;;;;;;45.47;33.73;;;;;;;;;;4992471;28;20221;-84
2023/04/09 04:25:47;;;;;;;44.87;33.87;;;;;;;;;;4975677;28;20240;-84
2023/04/09 04:28:21;;;;;;;48.40;34.03;;;;;;;;;;4989822;28;20243;-82
2023/04/09 04:30:51;;;;;;;44.23;33.23;;;;;;;;;;4978997;28;20702;-81
2023/04/09 04:33:19;;;;;;;43.13;32.87;;;;;;;;;;4981106;28;20220;-82
2023/04/09 04:35:50;;;;;;;45.47;33.77;;;;;;;;;;4978114;28;20270;-83
2023/04/09 04:38:32;;;;;;;43.53;32.10;;;;;;;;;;4970581;28;20224;-82
2023/04/09 04:41:03;;;;;;;46.37;33.83;;;;;;;;;;4996220;28;20228;-85
2023/04/09 04:43:33;;;;;;;46.80;34.33;;;;;;;;;;4993897;28;20275;-84
2023/04/09 04:46:01;;;;;;;45.83;33.47;;;;;;;;;;5006111;28;20243;-84
2023/04/09 04:48:30;;;;;;;45.83;33.73;;;;;;;;;;4988329;28;20228;-84
2023/04/09 04:51:01;;;;;;;42.47;33.27;;;;;;;;;;4997319;28;20777;-85
2023/04/09 04:53:35;;;;;;;45.57;33.67;;;;;;;;;;4989808;28;20220;-83
2023/04/09 04:56:14;;;;;;;44.77;33.10;;;;;;;;;;4993914;28;20224;-82
2023/04/09 04:58:48;;;;;;;46.77;33.27;;;;;;;;;;4960375;28;20213;-84
2023/04/09 05:01:16;;;;;;;42.63;32.87;;;;;;;;;;4994706;28;20209;-85
2023/04/09 05:03:42;;;;;;;41.80;30.70;;;;;;;;;;4961180;28;20220;-84
2023/04/09 05:06:28;;;;;;;42.30;32.43;;;;;;;;;;4981954;28;20217;-83
2023/04/09 05:08:57;;;;;;;42.37;32.77;;;;;;;;;;4973564;28;20781;-84
2023/04/09 05:11:31;;;;;;;43.00;33.03;;;;;;;;;;4994485;28;20243;-83
2023/04/09 05:13:57;;;;;;;42.00;32.97;;;;;;;;;;4992749;28;20221;-84
2023/04/09 05:16:25;;;;;;;44.70;31.67;;;;;;;;;;4994910;28;20575;-84
2023/04/09 05:18:59;;;;;;;41.90;31.70;;;;;;;;;;4995991;28;20235;-83
2023/04/09 05:21:26;;;;;;;43.87;32.63;;;;;;;;;;4995430;28;20224;-84
2023/04/09 05:23:57;;;;;;;39.40;31.40;;;;;;;;;;4988201;28;20231;-86
2023/04/09 05:26:22;;;;;;;44.10;32.43;;;;;;;;;;4979203;28;20315;-82
2023/04/09 05:28:53;;;;;;;43.03;32.00;;;;;;;;;;4990971;28;20220;-85
2023/04/09 05:31:20;;;;;;;38.60;31.90;;;;;;;;;;5003094;28;20213;-84
2023/04/09 05:33:53;;;;;;;41.27;31.77;;;;;;;;;;4995076;28;20231;-88
2023/04/09 05:36:26;;;;;;;43.00;32.47;;;;;;;;;;4975463;28;20224;-82
2023/04/09 05:38:54;;;;;;;41.70;30.87;;;;;;;;;;5003516;28;20233;-81
2023/04/09 05:41:23;;;;;;;38.83;31.53;;;;;;;;;;4989776;28;20213;-82
2023/04/09 05:44:08;;;;;;;36.20;29.87;;;;;;;;;;4989804;28;20228;-82
2023/04/09 05:46:40;;;;;;;37.80;30.00;;;;;;;;;;5004422;28;20218;-84
2023/04/09 05:49:06;;;;;;;38.47;30.27;;;;;;;;;;4968012;28;20233;-82
2023/04/09 05:51:35;;;;;;;37.33;30.23;;;;;;;;;;5006237;28;20213;-82
2023/04/09 05:54:01;;;;;;;42.23;31.50;;;;;;;;;;4993146;28;20225;-83
2023/04/09 05:56:31;;;;;;;39.87;30.90;;;;;;;;;;4981062;28;20717;-83
2023/04/09 05:59:00;;;;;;;37.77;29.87;;;;;;;;;;4995791;28;20657;-84
2023/04/09 06:01:26;;;;;;;34.80;30.07;;;;;;;;;;4966427;28;20225;-84
2023/04/09 06:03:51;;;;;;;35.60;29.40;;;;;;;;;;4976859;28;20308;-85
2023/04/09 06:06:19;;;;;;;37.13;30.30;;;;;;;;;;4979112;28;20684;-85
2023/04/09 06:08:47;;;;;;;34.10;28.50;;;;;;;;;;4997973;28;20209;-84
2023/04/09 06:11:12;;;;;;;37.27;28.97;;;;;;;;;;4987182;28;20654;-85
2023/04/09 06:13:38;;;;;;;33.00;28.80;;;;;;;;;;4958037;28;20220;-86
2023/04/09 06:16:07;;;;;;;32.93;27.87;;;;;;;;;;4978853;28;20224;-84
2023/04/09 06:18:33;;;;;;;33.83;28.60;;;;;;;;;;4969701;28;20244;-85
2023/04/09 06:21:05;;;;;;;35.13;27.03;;;;;;;;;;4995254;28;20220;-86
2023/04/09 06:23:31;;;;;;;32.93;26.10;;;;;;;;;;4980192;28;20224;-85
2023/04/09 06:25:57;;;;;;;32.53;26.93;;;;;;;;;;5013011;28;20233;-84
2023/04/09 06:28:22;;;;;;;33.90;25.87;;;;;;;;;;4994864;28;20225;-84
2023/04/09 06:30:52;;;;;;;28.93;24.37;;;;;;;;;;4957402;28;20315;-85
2023/04/09 06:33:19;;;;;;;30.30;24.70;;;;;;;;;;4963339;28;20291;-86
2023/04/09 06:35:44;;;;;;;28.63;24.27;;;;;;;;;;4992732;28;20228;-85
2023/04/09 06:38:10;;;;;;;29.83;25.03;;;;;;;;;;4981211;28;20228;-85
2023/04/09 06:40:37;;;;;;;28.73;23.90;;;;;;;;;;4995848;28;20637;-84
2023/04/09 06:43:06;;;;;;;30.03;24.03;;;;;;;;;;4963512;28;20225;-82
2023/04/09 06:45:40;;;;;;;27.03;23.53;;;;;;;;;;4987951;28;20220;-85
2023/04/09 06:48:06;;;;;;;27.83;23.77;;;;;;;;;;4995971;28;20350;-84
2023/04/09 06:50:32;;;;;;;26.00;23.00;;;;;;;;;;4980109;28;20217;-82
2023/04/09 06:52:57;;;;;;;25.33;22.33;;;;;;;;;;4981373;28;20224;-83
2023/04/09 06:55:25;;;;;;;25.77;21.33;;;;;;;;;;4968909;28;20217;-84
2023/04/09 06:57:51;;;;;;;22.90;20.27;;;;;;;;;;4988595;28;20236;-84
2023/04/09 07:00:16;;;;;;;23.17;19.83;;;;;;;;;;4976797;28;20766;-86
2023/04/09 07:02:42;;;;;;;22.47;20.07;;;;;;;;;;4996126;28;20241;-84
2023/04/09 07:05:08;;;;;;;22.57;20.17;;;;;;;;;;4990118;28;20228;-84
2023/04/09 07:07:33;;;;;;;21.13;18.77;;;;;;;;;;4999675;28;20587;-85
2023/04/09 07:15:22;;;;;;;;;;;;;;;;;;;;;
2023/04/09 07:25:33;;;;;;;23.03;20.10;;;;;;;;;;4893589;29;20283;-85
2023/04/09 07:29:13;;;;;;;20.17;18.03;;;;;;;;;;4912538;28;20319;-85
2023/04/09 07:32:02;;;;;;;21.80;18.83;;;;;;;;;;4959316;28;20265;-84
2023/04/09 07:34:30;;;;;;;20.40;18.13;;;;;;;;;;4965287;28;20221;-86
2023/04/09 07:36:56;;;;;;;19.47;17.00;;;;;;;;;;4974333;28;20221;-84
2023/04/09 07:39:26;;;;;;;21.27;17.67;;;;;;;;;;4981916;28;20233;-85
2023/04/09 07:41:52;;;;;;;19.00;17.00;;;;;;;;;;4967122;28;20740;-86
2023/04/09 07:44:17;;;;;;;33.03;29.87;;;;;;;;;;5005593;28;20224;-85
2023/04/09 07:46:45;;;;;;;22.37;19.93;;;;;;;;;;4993394;28;20221;-86
2023/04/09 07:49:10;;;;;;;18.60;16.80;;;;;;;;;;4965622;28;20283;-83
2023/04/09 07:51:38;;;;;;;19.23;17.03;;;;;;;;;;4993439;28;20240;-85
2023/04/09 07:54:10;;;;;;;19.97;17.80;;;;;;;;;;5010585;28;20220;-85
2023/04/09 07:56:38;;;;;;;19.13;17.20;;;;;;;;;;4995400;28;20228;-84
2023/04/09 07:59:04;;;;;;;19.50;17.50;;;;;;;;;;4977382;28;20235;-83
2023/04/09 08:01:33;;;;;;;19.17;17.10;;;;;;;;;;4996253;28;20228;-87
2023/04/09 08:03:58;;;;;;;18.47;16.57;;;;;;;;;;5002891;28;20229;-87
2023/04/09 08:06:25;;;;;;;18.17;16.20;;;;;;;;;;5017001;28;20225;-86
2023/04/09 08:08:55;;;;;;;18.40;16.23;;;;;;;;;;4998647;28;20224;-84
2023/04/09 08:11:25;;;;;;;18.70;16.70;;;;;;;;;;5006189;28;20232;-87
2023/04/09 08:13:51;;;;;;;20.73;16.80;;;;;;;;;;4990343;28;20225;-86
2023/04/09 08:16:20;;;;;;;19.97;17.43;;;;;;;;;;4996905;28;20216;-84
2023/04/09 08:18:46;;;;;;;18.27;16.37;;;;;;;;;;4981244;28;20212;-85
2023/04/09 08:21:12;;;;;;;18.63;16.77;;;;;;;;;;4980064;28;20292;-85
2023/04/09 08:23:37;;;;;;;18.37;16.37;;;;;;;;;;5002076;28;20247;-86
2023/04/09 08:26:03;;;;;;;17.33;15.63;;;;;;;;;;4997343;28;20251;-83
2023/04/09 08:28:32;;;;;;;18.07;16.03;;;;;;;;;;5004889;28;20228;-85
2023/04/09 08:31:02;;;;;;;18.80;16.37;;;;;;;;;;5016080;28;20249;-87
2023/04/09 08:33:30;;;;;;;17.73;15.83;;;;;;;;;;5008332;28;20221;-83
2023/04/09 08:35:56;;;;;;;18.43;16.47;;;;;;;;;;5010273;28;20239;-85
2023/04/09 08:38:26;;;;;;;18.13;16.23;;;;;;;;;;4978234;28;20232;-84
2023/04/09 08:40:54;;;;;;;19.57;16.50;;;;;;;;;;4991827;28;20228;-85
2023/04/09 08:43:19;;;;;;;16.77;15.07;;;;;;;;;;5000868;28;20219;-83
2023/04/09 08:45:46;;;;;;;16.93;15.23;;;;;;;;;;4978262;28;20292;-85
2023/04/09 08:48:15;;;;;;;16.50;14.73;;;;;;;;;;5034124;28;20259;-84
2023/04/09 08:50:45;;;;;;;17.40;15.60;;;;;;;;;;5008890;28;20216;-85
2023/04/09 08:53:10;;;;;;;16.63;14.83;;;;;;;;;;4997900;28;20228;-85
2023/04/09 08:55:38;;;;;;;17.17;15.47;;;;;;;;;;4997512;28;20224;-84
2023/04/09 08:58:06;;;;;;;18.47;15.33;;;;;;;;;;4979969;28;20292;-83
2023/04/09 09:00:34;;;;;;;16.63;14.93;;;;;;;;;;4968794;28;20283;-85
2023/04/09 09:03:14;;;;;;;17.87;15.60;;;;;;;;;;5011320;28;20212;-85
2023/04/09 09:05:41;;;;;;;16.30;14.70;;;;;;;;;;4954302;28;20225;-83
2023/04/09 09:08:10;;;;;;;16.57;14.80;;;;;;;;;;5001393;28;20240;-85
2023/04/09 09:10:42;;;;;;;15.97;14.37;;;;;;;;;;4986276;28;20217;-84
2023/04/09 09:13:21;;;;;;;15.83;14.33;;;;;;;;;;4989197;28;20240;-85
2023/04/09 09:15:49;;;;;;;14.93;13.43;;;;;;;;;;4999193;28;20220;-84
2023/04/09 09:18:39;;;;;;;15.67;14.07;;;;;;;;;;4990085;28;20319;-85
2023/04/09 09:21:15;;;;;;;16.00;14.40;;;;;;;;;;4954168;28;21127;-85
2023/04/09 09:23:41;;;;;;;16.23;14.53;;;;;;;;;;5002111;28;20220;-85
2023/04/09 09:26:26;;;;;;;14.87;13.33;;;;;;;;;;4967133;28;20220;-83
2023/04/09 09:28:52;;;;;;;14.77;13.33;;;;;;;;;;4965658;28;20584;-84
2023/04/09 09:31:21;;;;;;;15.23;13.67;;;;;;;;;;4978383;28;20216;-85
2023/04/09 09:33:47;;;;;;;15.70;14.10;;;;;;;;;;5000126;28;20213;-85
2023/04/09 09:36:13;;;;;;;16.17;14.37;;;;;;;;;;5005577;28;20682;-87
2023/04/09 09:38:55;;;;;;;16.60;14.90;;;;;;;;;;4983776;28;20316;-86
2023/04/09 09:41:23;;;;;;;15.87;14.17;;;;;;;;;;4980029;28;20232;-86
2023/04/09 09:43:51;;;;;;;15.70;14.00;;;;;;;;;;4965371;28;20244;-86
2023/04/09 09:46:20;;;;;;;15.67;14.13;;;;;;;;;;4980560;28;20227;-85
2023/04/09 09:48:45;;;;;;;15.37;13.77;;;;;;;;;;4980430;28;20259;-86
2023/04/09 09:51:11;;;;;;;15.43;13.83;;;;;;;;;;4963494;28;20225;-85
2023/04/09 09:53:40;;;;;;;14.57;13.07;;;;;;;;;;4948331;28;20302;-86
2023/04/09 09:56:15;;;;;;;15.43;13.70;;;;;;;;;;4963311;28;20284;-85
2023/04/09 09:58:55;;;;;;;14.60;13.20;;;;;;;;;;4980471;28;20263;-84
2023/04/09 10:01:20;;;;;;;15.27;13.70;;;;;;;;;;4984815;28;20227;-84
2023/04/09 10:03:51;;;;;;;15.20;13.70;;;;;;;;;;5002483;28;20282;-85
2023/04/09 10:06:19;;;;;;;15.63;14.03;;;;;;;;;;5004724;28;20222;-84
2023/04/09 10:08:44;;;;;;;15.50;14.00;;;;;;;;;;4958810;28;20224;-86
2023/04/09 10:11:12;;;;;;;14.80;13.30;;;;;;;;;;4975904;28;20236;-84
2023/04/09 10:13:45;;;;;;;15.03;13.07;;;;;;;;;;4967079;28;20247;-85
2023/04/09 10:16:14;;;;;;;14.13;12.80;;;;;;;;;;4981643;28;20279;-84
2023/04/09 10:18:42;;;;;;;14.40;12.70;;;;;;;;;;4983459;28;20290;-84
2023/04/09 10:21:16;;;;;;;13.20;11.83;;;;;;;;;;4980069;28;20217;-86
2023/04/09 10:23:47;;;;;;;13.20;11.85;;;;;;;;;;4986794;28;20597;-84
2023/04/09 10:26:15;;;;;;;14.47;12.83;;;;;;;;;;4978738;28;20584;-85
2023/04/09 10:28:40;;;;;;;13.15;11.95;;;;;;;;;;5003088;28;20281;-85
2023/04/09 10:31:06;;;;;;;13.67;12.37;;;;;;;;;;4980071;28;20231;-82
2023/04/09 10:33:37;;;;;;;12.90;11.70;;;;;;;;;;4998335;28;20232;-83
2023/04/09 10:36:09;;;;;;;13.53;12.23;;;;;;;;;;4980601;28;20221;-85
2023/04/09 10:38:40;;;;;;;13.57;12.17;;;;;;;;;;4978883;28;20228;-86
2023/04/09 10:41:12;;;;;;;14.48;12.95;;;;;;;;;;4970722;28;20360;-84
2023/04/09 10:43:37;;;;;;;13.02;11.73;;;;;;;;;;4977187;28;20392;-84
2023/04/09 10:46:08;;;;;;;13.70;12.40;;;;;;;;;;4993044;28;20721;-84
2023/04/09 10:48:36;;;;;;;12.85;11.55;;;;;;;;;;4964734;28;20223;-84
2023/04/09 10:51:05;;;;;;;12.68;11.02;;;;;;;;;;4963591;28;20231;-85
2023/04/09 10:53:35;;;;;;;12.63;11.25;;;;;;;;;;4997175;28;20854;-84
2023/04/09 10:56:02;;;;;;;12.80;11.45;;;;;;;;;;4968687;28;20717;-85
2023/04/09 10:58:30;;;;;;;13.25;11.85;;;;;;;;;;4963155;28;20228;-86
2023/04/09 11:00:58;;;;;;;12.45;11.23;;;;;;;;;;4958172;28;20224;-84
2023/04/09 11:03:25;;;;;;;12.27;11.07;;;;;;;;;;4980504;28;20640;-82
2023/04/09 11:06:07;;;;;;;14.07;12.60;;;;;;;;;;4970396;28;20264;-84
2023/04/09 11:08:37;;;;;;;12.25;11.00;;;;;;;;;;4964855;28;20300;-84
2023/04/09 11:11:08;;;;;;;12.25;11.02;;;;;;;;;;4961857;28;20236;-83
2023/04/09 11:13:40;;;;;;;12.23;10.93;;;;;;;;;;4949109;28;20678;-84
2023/04/09 11:16:12;;;;;;;12.90;11.60;;;;;;;;;;4978911;28;20239;-84
2023/04/09 11:18:37;;;;;;;13.32;11.93;;;;;;;;;;4965669;28;20574;-85
2023/04/09 11:21:05;;;;;;;13.43;12.02;;;;;;;;;;4965283;28;20217;-83
2023/04/09 11:23:34;;;;;;;12.90;11.70;;;;;;;;;;4989789;28;20288;-82
2023/04/09 11:26:00;;;;;;;14.18;12.43;;;;;;;;;;4993512;28;20291;-82
2023/04/09 11:28:26;;;;;;;13.70;11.82;;;;;;;;;;4956473;28;20248;-83
2023/04/09 11:30:54;;;;;;;12.43;11.23;;;;;;;;;;5003538;28;20217;-83
2023/04/09 11:33:30;;;;;;;12.93;11.02;;;;;;;;;;5002291;28;20229;-83
2023/04/09 11:35:58;;;;;;;12.05;10.88;;;;;;;;;;4968488;28;20219;-84
2023/04/09 11:38:24;;;;;;;11.73;10.63;;;;;;;;;;4953535;28;20225;-85
2023/04/09 11:40:51;;;;;;;13.07;11.77;;;;;;;;;;4995321;28;20244;-85
2023/04/09 11:43:19;;;;;;;12.93;11.63;;;;;;;;;;4967503;28;20295;-84
2023/04/09 11:45:50;;;;;;;13.65;12.35;;;;;;;;;;4993858;28;20229;-85
2023/04/09 11:48:17;;;;;;;13.35;11.95;;;;;;;;;;4950220;28;20278;-83
2023/04/09 11:50:42;;;;;;;12.60;11.40;;;;;;;;;;4982571;28;20255;-84
2023/04/09 11:53:35;;;;;;;12.95;11.75;;;;;;;;;;5000257;28;20224;-84
2023/04/09 11:56:06;;;;;;;13.23;11.93;;;;;;;;;;4971327;28;20256;-84
2023/04/09 11:58:32;;;;;;;13.25;11.65;;;;;;;;;;5020679;28;20231;-84
2023/04/09 12:00:58;;;;;;;12.07;10.98;;;;;;;;;;4982797;28;20229;-85
2023/04/09 12:03:29;;;;;;;12.90;11.60;;;;;;;;;;4982782;28;20216;-85
2023/04/09 12:05:57;;;;;;;12.35;11.15;;;;;;;;;;4999810;28;20745;-85
2023/04/09 12:08:23;;;;;;;11.88;10.77;;;;;;;;;;5001164;28;20271;-85
2023/04/09 12:10:51;;;;;;;12.35;11.15;;;;;;;;;;4997566;28;20229;-84
2023/04/09 12:13:19;;;;;;;12.75;11.45;;;;;;;;;;4977471;28;20225;-83
2023/04/09 12:15:50;;;;;;;11.98;10.90;;;;;;;;;;4982357;28;20319;-84
2023/04/09 12:18:22;;;;;;;12.60;11.30;;;;;;;;;;5009607;28;20244;-84
2023/04/09 12:20:48;;;;;;;12.77;11.57;;;;;;;;;;4969531;28;20216;-86
2023/04/09 12:23:14;;;;;;;11.93;10.82;;;;;;;;;;4980847;28;20685;-85
2023/04/09 12:25:44;;;;;;;12.32;11.13;;;;;;;;;;4996458;28;20253;-85
2023/04/09 12:28:16;;;;;;;12.05;10.95;;;;;;;;;;4974415;28;20228;-83
2023/04/09 12:30:45;;;;;;;12.45;11.25;;;;;;;;;;4972911;28;20221;-85
2023/04/09 12:33:10;;;;;;;11.82;10.70;;;;;;;;;;5025811;28;20247;-84
2023/04/09 12:35:43;;;;;;;12.20;11.13;;;;;;;;;;5009574;28;20221;-83
2023/04/09 12:38:09;;;;;;;11.07;10.07;;;;;;;;;;4978949;28;20223;-84
2023/04/09 12:40:37;;;;;;;10.88;9.85;;;;;;;;;;5009874;28;20216;-83
2023/04/09 12:43:05;;;;;;;9.52;8.52;;;;;;;;;;4985994;28;20239;-84
2023/04/09 12:45:33;;;;;;;9.60;8.60;;;;;;;;;;4965580;28;20276;-84
2023/04/09 12:47:59;;;;;;;10.38;9.48;;;;;;;;;;5014182;28;20288;-87
2023/04/09 12:50:24;;;;;;;10.90;9.80;;;;;;;;;;4966186;28;20283;-86
2023/04/09 12:52:52;;;;;;;10.50;9.40;;;;;;;;;;4967874;28;20257;-84
2023/04/09 12:55:21;;;;;;;11.38;9.98;;;;;;;;;;4971098;28;20221;-84
2023/04/09 12:57:50;;;;;;;9.63;8.73;;;;;;;;;;4986937;28;20275;-85
2023/04/09 13:00:15;;;;;;;9.85;8.90;;;;;;;;;;4971266;28;20231;-82
2023/04/09 13:02:43;;;;;;;10.48;9.45;;;;;;;;;;4985981;28;20217;-83
2023/04/09 13:05:09;;;;;;;10.32;9.32;;;;;;;;;;4998743;28;20830;-84
2023/04/09 13:07:36;;;;;;;10.32;9.32;;;;;;;;;;4984825;28;20244;-84
2023/04/09 13:10:04;;;;;;;10.65;9.55;;;;;;;;;;4971048;28;20228;-84
2023/04/09 13:12:32;;;;;;;10.40;9.40;;;;;;;;;;5003925;28;20221;-86
2023/04/09 13:15:01;;;;;;;10.07;9.13;;;;;;;;;;4970730;28;20594;-84
2023/04/09 13:17:26;;;;;;;10.60;9.60;;;;;;;;;;4968312;28;20311;-84
2023/04/09 13:20:00;;;;;;;10.30;9.30;;;;;;;;;;4998135;28;20252;-84
2023/04/09 13:22:26;;;;;;;10.27;9.38;;;;;;;;;;4999309;28;20692;-83
2023/04/09 13:24:54;;;;;;;10.75;9.68;;;;;;;;;;4976589;28;20280;-84
2023/04/09 13:27:20;;;;;;;10.95;9.85;;;;;;;;;;4954349;28;20217;-82
2023/04/09 13:29:55;;;;;;;10.88;9.88;;;;;;;;;;4981728;28;20239;-85
2023/04/09 13:32:26;;;;;;;11.10;10.00;;;;;;;;;;4998813;28;20220;-84
2023/04/09 13:34:53;;;;;;;11.80;10.80;;;;;;;;;;4985691;28;20295;-84
2023/04/09 13:37:21;;;;;;;12.48;11.30;;;;;;;;;;4983578;28;20371;-84
2023/04/09 13:39:50;;;;;;;13.95;11.93;;;;;;;;;;4986014;28;20213;-84
2023/04/09 13:42:21;;;;;;;12.93;11.73;;;;;;;;;;4949757;28;20307;-84
2023/04/09 13:44:46;;;;;;;13.13;11.93;;;;;;;;;;4982401;28;20232;-85
2023/04/09 13:47:12;;;;;;;13.13;11.73;;;;;;;;;;4998659;28;20209;-84
2023/04/09 13:49:41;;;;;;;13.13;11.88;;;;;;;;;;4998961;28;20316;-84
2023/04/09 13:52:06;;;;;;;13.18;11.88;;;;;;;;;;4978189;28;20220;-83
2023/04/09 13:54:32;;;;;;;14.18;12.75;;;;;;;;;;4968141;28;20286;-82
2023/04/09 14:00:09;;;;;;;18.23;15.52;;;;;;;;;;4989055;28;20299;-75
2023/04/09 14:02:37;;;;;;;19.10;17.20;;;;;;;;;;5006751;28;20243;-76
2023/04/09 14:05:03;;;;;;;19.73;17.95;;;;;;;;;;5006424;28;20228;-77
2023/04/09 14:07:29;;;;;;;21.00;18.80;;;;;;;;;;4988423;28;20231;-76
2023/04/09 14:09:57;;;;;;;20.60;18.50;;;;;;;;;;5014700;28;20220;-78
2023/04/09 14:12:25;;;;;;;21.02;18.80;;;;;;;;;;4997377;28;20231;-78
2023/04/09 14:14:51;;;;;;;20.65;18.45;;;;;;;;;;5017573;28;20260;-76
2023/04/09 14:17:18;;;;;;;19.63;17.70;;;;;;;;;;5027239;28;20694;-76
2023/04/09 14:19:49;;;;;;;20.00;17.98;;;;;;;;;;5002716;28;20277;-76
2023/04/09 14:22:16;;;;;;;20.65;18.45;;;;;;;;;;5010484;28;20224;-77
2023/04/09 14:24:42;;;;;;;19.60;17.60;;;;;;;;;;4994482;28;20244;-76
2023/04/09 14:27:08;;;;;;;19.08;17.20;;;;;;;;;;5009818;28;20845;-76
2023/04/09 14:29:33;;;;;;;19.70;17.80;;;;;;;;;;4996744;28;20228;-76
2023/04/09 14:31:59;;;;;;;20.02;17.92;;;;;;;;;;5033563;28;20220;-75
2023/04/09 14:34:28;;;;;;;20.23;17.48;;;;;;;;;;4991430;28;20216;-77
2023/04/09 14:37:01;;;;;;;19.45;17.55;;;;;;;;;;5026649;28;20382;-77
2023/04/09 14:39:31;;;;;;;19.80;17.83;;;;;;;;;;4993331;28;20681;-77
2023/04/09 14:41:56;;;;;;;19.98;17.88;;;;;;;;;;4993368;28;20219;-77
2023/04/09 14:44:24;;;;;;;19.30;17.35;;;;;;;;;;5027845;28;20250;-77
2023/04/09 14:46:53;;;;;;;18.55;16.73;;;;;;;;;;5027547;28;20243;-77